sensor_id;sensor_type;location;lat;lon;timestamp;temperature;humidity
19281;DHT22;9774;52.034;5.342;2023-08-07T00:02:16;18.20;68.90
19281;DHT22;9774;52.034;5.342;2023-08-07T00:04:43;18.10;68.80
19281;DHT22;9774;52.034;5.342;2023-08-07T00:07:11;18.10;68.90
19281;DHT22;9774;52.034;5.342;2023-08-07T00:09:38;18.10;69.00
19281;DHT22;9774;52.034;5.342;2023-08-07T00:12:06;18.10;69.00
19281;DHT22;9774;52.034;5.342;2023-08-07T00:14:34;18.10;69.10
19281;DHT22;9774;52.034;5.342;2023-08-07T00:17:02;18.10;69.20
19281;DHT22;9774;52.034;5.342;2023-08-07T00:19:31;18.10;69.30
19281;DHT22;9774;52.034;5.342;2023-08-07T00:21:58;18.10;69.30
19281;DHT22;9774;52.034;5.342;2023-08-07T00:24:26;18.00;69.30
19281;DHT22;9774;52.034;5.342;2023-08-07T00:26:53;18.00;69.40
19281;DHT22;9774;52.034;5.342;2023-08-07T00:29:20;18.00;69.40
19281;DHT22;9774;52.034;5.342;2023-08-07T00:31:47;18.00;69.30
19281;DHT22;9774;52.034;5.342;2023-08-07T00:34:15;18.00;69.40
19281;DHT22;9774;52.034;5.342;2023-08-07T00:36:43;18.00;69.40
19281;DHT22;9774;52.034;5.342;2023-08-07T00:39:12;18.00;69.50
19281;DHT22;9774;52.034;5.342;2023-08-07T00:41:41;18.00;69.50
19281;DHT22;9774;52.034;5.342;2023-08-07T00:44:08;18.00;69.60
19281;DHT22;9774;52.034;5.342;2023-08-07T00:46:35;18.00;69.60
19281;DHT22;9774;52.034;5.342;2023-08-07T00:49:04;18.00;69.50
19281;DHT22;9774;52.034;5.342;2023-08-07T00:51:33;18.00;69.60
19281;DHT22;9774;52.034;5.342;2023-08-07T00:54:04;18.00;69.70
19281;DHT22;9774;52.034;5.342;2023-08-07T00:56:32;18.00;69.70
19281;DHT22;9774;52.034;5.342;2023-08-07T00:59:01;18.00;69.70
19281;DHT22;9774;52.034;5.342;2023-08-07T01:01:29;18.00;69.70
19281;DHT22;9774;52.034;5.342;2023-08-07T01:03:56;18.00;69.70
19281;DHT22;9774;52.034;5.342;2023-08-07T01:06:23;18.00;69.70
19281;DHT22;9774;52.034;5.342;2023-08-07T01:08:50;18.00;69.60
19281;DHT22;9774;52.034;5.342;2023-08-07T01:11:24;18.00;69.60
19281;DHT22;9774;52.034;5.342;2023-08-07T01:14:05;18.00;69.60
19281;DHT22;9774;52.034;5.342;2023-08-07T01:16:42;18.10;69.70
19281;DHT22;9774;52.034;5.342;2023-08-07T01:19:23;18.10;69.50
19281;DHT22;9774;52.034;5.342;2023-08-07T01:22:05;18.10;69.50
19281;DHT22;9774;52.034;5.342;2023-08-07T01:24:33;18.10;69.40
19281;DHT22;9774;52.034;5.342;2023-08-07T01:27:07;18.10;69.30
19281;DHT22;9774;52.034;5.342;2023-08-07T01:29:54;18.10;69.30
19281;DHT22;9774;52.034;5.342;2023-08-07T01:32:27;18.10;69.20
19281;DHT22;9774;52.034;5.342;2023-08-07T01:35:02;18.10;69.10
19281;DHT22;9774;52.034;5.342;2023-08-07T01:37:35;18.10;69.10
19281;DHT22;9774;52.034;5.342;2023-08-07T01:40:06;18.10;69.10
19281;DHT22;9774;52.034;5.342;2023-08-07T01:42:35;18.10;69.00
19281;DHT22;9774;52.034;5.342;2023-08-07T01:45:04;18.10;69.00
19281;DHT22;9774;52.034;5.342;2023-08-07T01:47:32;18.10;69.00
19281;DHT22;9774;52.034;5.342;2023-08-07T01:50:01;18.10;69.00
19281;DHT22;9774;52.034;5.342;2023-08-07T01:52:28;18.10;68.90
19281;DHT22;9774;52.034;5.342;2023-08-07T01:54:56;18.10;68.90
19281;DHT22;9774;52.034;5.342;2023-08-07T01:57:23;18.10;68.80
19281;DHT22;9774;52.034;5.342;2023-08-07T01:59:51;18.10;68.80
19281;DHT22;9774;52.034;5.342;2023-08-07T02:02:18;18.10;68.80
19281;DHT22;9774;52.034;5.342;2023-08-07T02:04:45;18.10;68.70
19281;DHT22;9774;52.034;5.342;2023-08-07T02:07:12;18.00;68.60
19281;DHT22;9774;52.034;5.342;2023-08-07T02:09:39;18.10;68.70
19281;DHT22;9774;52.034;5.342;2023-08-07T02:12:08;18.00;68.70
19281;DHT22;9774;52.034;5.342;2023-08-07T02:14:35;18.00;68.60
19281;DHT22;9774;52.034;5.342;2023-08-07T02:17:02;18.00;68.60
19281;DHT22;9774;52.034;5.342;2023-08-07T02:19:29;18.00;68.60
19281;DHT22;9774;52.034;5.342;2023-08-07T02:21:56;18.10;68.70
19281;DHT22;9774;52.034;5.342;2023-08-07T02:24:23;18.00;68.60
19281;DHT22;9774;52.034;5.342;2023-08-07T02:26:51;18.00;68.60
19281;DHT22;9774;52.034;5.342;2023-08-07T02:29:19;18.00;68.60
19281;DHT22;9774;52.034;5.342;2023-08-07T02:31:46;18.10;68.70
19281;DHT22;9774;52.034;5.342;2023-08-07T02:34:13;18.10;68.70
19281;DHT22;9774;52.034;5.342;2023-08-07T02:36:40;18.00;68.70
19281;DHT22;9774;52.034;5.342;2023-08-07T02:39:07;18.10;68.80
19281;DHT22;9774;52.034;5.342;2023-08-07T02:41:34;18.00;68.70
19281;DHT22;9774;52.034;5.342;2023-08-07T02:44:01;18.10;68.90
19281;DHT22;9774;52.034;5.342;2023-08-07T02:46:29;18.10;68.90
19281;DHT22;9774;52.034;5.342;2023-08-07T02:48:56;18.10;68.80
19281;DHT22;9774;52.034;5.342;2023-08-07T02:51:23;18.10;68.80
19281;DHT22;9774;52.034;5.342;2023-08-07T02:53:50;18.10;68.80
19281;DHT22;9774;52.034;5.342;2023-08-07T02:56:19;18.10;68.80
19281;DHT22;9774;52.034;5.342;2023-08-07T02:58:48;18.10;68.80
19281;DHT22;9774;52.034;5.342;2023-08-07T03:01:15;18.10;69.50
19281;DHT22;9774;52.034;5.342;2023-08-07T03:03:44;18.10;68.80
19281;DHT22;9774;52.034;5.342;2023-08-07T03:06:10;18.10;68.70
19281;DHT22;9774;52.034;5.342;2023-08-07T03:08:37;18.20;68.80
19281;DHT22;9774;52.034;5.342;2023-08-07T03:11:04;18.20;68.80
19281;DHT22;9774;52.034;5.342;2023-08-07T03:13:31;18.20;68.70
19281;DHT22;9774;52.034;5.342;2023-08-07T03:15:59;18.20;68.60
19281;DHT22;9774;52.034;5.342;2023-08-07T03:18:27;18.20;68.60
19281;DHT22;9774;52.034;5.342;2023-08-07T03:20:55;18.20;68.60
19281;DHT22;9774;52.034;5.342;2023-08-07T03:23:23;18.10;68.60
19281;DHT22;9774;52.034;5.342;2023-08-07T03:26:00;18.10;68.70
19281;DHT22;9774;52.034;5.342;2023-08-07T03:28:28;18.10;68.80
19281;DHT22;9774;52.034;5.342;2023-08-07T03:30:55;18.10;68.80
19281;DHT22;9774;52.034;5.342;2023-08-07T03:33:22;18.10;69.00
19281;DHT22;9774;52.034;5.342;2023-08-07T03:35:49;18.10;69.00
19281;DHT22;9774;52.034;5.342;2023-08-07T03:38:18;18.00;69.10
19281;DHT22;9774;52.034;5.342;2023-08-07T03:40:46;18.00;69.10
19281;DHT22;9774;52.034;5.342;2023-08-07T03:43:13;18.00;69.10
19281;DHT22;9774;52.034;5.342;2023-08-07T03:45:40;18.00;69.10
19281;DHT22;9774;52.034;5.342;2023-08-07T03:48:07;18.00;69.20
19281;DHT22;9774;52.034;5.342;2023-08-07T03:50:34;18.00;69.30
19281;DHT22;9774;52.034;5.342;2023-08-07T03:53:03;18.00;69.40
19281;DHT22;9774;52.034;5.342;2023-08-07T03:55:34;18.00;69.40
19281;DHT22;9774;52.034;5.342;2023-08-07T03:58:02;18.00;69.40
19281;DHT22;9774;52.034;5.342;2023-08-07T04:00:29;18.00;69.40
19281;DHT22;9774;52.034;5.342;2023-08-07T04:02:56;18.00;69.50
19281;DHT22;9774;52.034;5.342;2023-08-07T04:05:23;18.00;69.70
19281;DHT22;9774;52.034;5.342;2023-08-07T04:07:50;18.00;69.60
19281;DHT22;9774;52.034;5.342;2023-08-07T04:10:17;17.90;69.60
19281;DHT22;9774;52.034;5.342;2023-08-07T04:12:45;17.90;69.70
19281;DHT22;9774;52.034;5.342;2023-08-07T04:15:12;17.90;69.80
19281;DHT22;9774;52.034;5.342;2023-08-07T04:17:39;18.00;69.90
19281;DHT22;9774;52.034;5.342;2023-08-07T04:20:07;17.90;69.80
19281;DHT22;9774;52.034;5.342;2023-08-07T04:22:35;18.00;70.00
19281;DHT22;9774;52.034;5.342;2023-08-07T04:25:03;18.00;70.10
19281;DHT22;9774;52.034;5.342;2023-08-07T04:27:30;18.00;70.10
19281;DHT22;9774;52.034;5.342;2023-08-07T04:29:58;18.00;70.10
19281;DHT22;9774;52.034;5.342;2023-08-07T04:32:25;18.00;70.10
19281;DHT22;9774;52.034;5.342;2023-08-07T04:34:52;18.00;70.00
19281;DHT22;9774;52.034;5.342;2023-08-07T04:37:20;18.00;70.00
19281;DHT22;9774;52.034;5.342;2023-08-07T04:39:48;18.00;70.10
19281;DHT22;9774;52.034;5.342;2023-08-07T04:42:15;18.00;70.10
19281;DHT22;9774;52.034;5.342;2023-08-07T04:44:41;18.00;70.00
19281;DHT22;9774;52.034;5.342;2023-08-07T04:47:10;18.00;70.00
19281;DHT22;9774;52.034;5.342;2023-08-07T04:49:37;18.00;70.00
19281;DHT22;9774;52.034;5.342;2023-08-07T04:52:04;18.00;70.00
19281;DHT22;9774;52.034;5.342;2023-08-07T04:54:31;18.10;70.00
19281;DHT22;9774;52.034;5.342;2023-08-07T04:56:58;18.10;70.00
19281;DHT22;9774;52.034;5.342;2023-08-07T04:59:25;18.10;69.90
19281;DHT22;9774;52.034;5.342;2023-08-07T05:01:55;18.10;69.90
19281;DHT22;9774;52.034;5.342;2023-08-07T05:04:23;18.10;69.90
19281;DHT22;9774;52.034;5.342;2023-08-07T05:06:50;18.10;69.90
19281;DHT22;9774;52.034;5.342;2023-08-07T05:09:17;18.10;69.90
19281;DHT22;9774;52.034;5.342;2023-08-07T05:11:44;18.10;69.90
19281;DHT22;9774;52.034;5.342;2023-08-07T05:14:11;18.10;70.00
19281;DHT22;9774;52.034;5.342;2023-08-07T05:16:38;18.10;69.90
19281;DHT22;9774;52.034;5.342;2023-08-07T05:19:05;18.10;69.90
19281;DHT22;9774;52.034;5.342;2023-08-07T05:21:34;18.20;69.90
19281;DHT22;9774;52.034;5.342;2023-08-07T05:24:01;18.20;69.80
19281;DHT22;9774;52.034;5.342;2023-08-07T05:26:28;18.20;69.80
19281;DHT22;9774;52.034;5.342;2023-08-07T05:28:55;18.20;69.70
19281;DHT22;9774;52.034;5.342;2023-08-07T05:31:23;18.20;69.70
19281;DHT22;9774;52.034;5.342;2023-08-07T05:33:51;18.20;69.70
19281;DHT22;9774;52.034;5.342;2023-08-07T05:36:18;18.20;69.70
19281;DHT22;9774;52.034;5.342;2023-08-07T05:38:46;18.20;69.80
19281;DHT22;9774;52.034;5.342;2023-08-07T05:41:13;18.30;69.80
19281;DHT22;9774;52.034;5.342;2023-08-07T05:43:40;18.30;69.80
19281;DHT22;9774;52.034;5.342;2023-08-07T05:46:07;18.30;69.80
19281;DHT22;9774;52.034;5.342;2023-08-07T05:48:34;18.30;69.70
19281;DHT22;9774;52.034;5.342;2023-08-07T05:51:01;18.30;69.80
19281;DHT22;9774;52.034;5.342;2023-08-07T05:53:28;18.30;69.80
19281;DHT22;9774;52.034;5.342;2023-08-07T05:55:56;18.30;69.50
19281;DHT22;9774;52.034;5.342;2023-08-07T05:58:23;18.30;69.30
19281;DHT22;9774;52.034;5.342;2023-08-07T06:00:50;18.30;69.20
19281;DHT22;9774;52.034;5.342;2023-08-07T06:03:17;18.30;69.10
19281;DHT22;9774;52.034;5.342;2023-08-07T06:05:44;18.20;69.10
19281;DHT22;9774;52.034;5.342;2023-08-07T06:08:11;18.20;69.10
19281;DHT22;9774;52.034;5.342;2023-08-07T06:10:38;18.10;69.20
19281;DHT22;9774;52.034;5.342;2023-08-07T06:13:07;18.10;69.40
19281;DHT22;9774;52.034;5.342;2023-08-07T06:15:34;18.00;69.40
19281;DHT22;9774;52.034;5.342;2023-08-07T06:18:01;18.10;69.60
19281;DHT22;9774;52.034;5.342;2023-08-07T06:20:27;18.10;69.80
19281;DHT22;9774;52.034;5.342;2023-08-07T06:22:54;18.10;69.90
19281;DHT22;9774;52.034;5.342;2023-08-07T06:25:21;18.00;70.00
19281;DHT22;9774;52.034;5.342;2023-08-07T06:27:50;18.10;70.10
19281;DHT22;9774;52.034;5.342;2023-08-07T06:30:18;18.10;70.20
19281;DHT22;9774;52.034;5.342;2023-08-07T06:32:45;18.10;70.40
19281;DHT22;9774;52.034;5.342;2023-08-07T06:35:12;18.10;70.50
19281;DHT22;9774;52.034;5.342;2023-08-07T06:37:39;18.10;70.60
19281;DHT22;9774;52.034;5.342;2023-08-07T06:40:07;18.20;70.80
19281;DHT22;9774;52.034;5.342;2023-08-07T06:42:35;18.30;71.00
19281;DHT22;9774;52.034;5.342;2023-08-07T06:45:03;18.30;70.90
19281;DHT22;9774;52.034;5.342;2023-08-07T06:47:32;18.30;70.80
19281;DHT22;9774;52.034;5.342;2023-08-07T06:50:00;18.40;70.70
19281;DHT22;9774;52.034;5.342;2023-08-07T06:52:26;18.50;70.70
19281;DHT22;9774;52.034;5.342;2023-08-07T06:54:53;18.50;70.60
19281;DHT22;9774;52.034;5.342;2023-08-07T06:57:20;18.50;70.50
19281;DHT22;9774;52.034;5.342;2023-08-07T06:59:47;18.50;70.40
19281;DHT22;9774;52.034;5.342;2023-08-07T07:02:14;18.60;70.50
19281;DHT22;9774;52.034;5.342;2023-08-07T07:04:43;18.70;70.50
19281;DHT22;9774;52.034;5.342;2023-08-07T07:07:10;18.70;70.40
19281;DHT22;9774;52.034;5.342;2023-08-07T07:09:36;18.80;70.30
19281;DHT22;9774;52.034;5.342;2023-08-07T07:12:04;18.80;70.20
19281;DHT22;9774;52.034;5.342;2023-08-07T07:14:32;18.80;70.20
19281;DHT22;9774;52.034;5.342;2023-08-07T07:17:00;18.90;70.10
19281;DHT22;9774;52.034;5.342;2023-08-07T07:19:27;18.90;70.70
19281;DHT22;9774;52.034;5.342;2023-08-07T07:21:55;19.00;69.90
19281;DHT22;9774;52.034;5.342;2023-08-07T07:24:22;19.00;69.80
19281;DHT22;9774;52.034;5.342;2023-08-07T07:26:49;19.00;69.50
19281;DHT22;9774;52.034;5.342;2023-08-07T07:29:16;19.00;69.10
19281;DHT22;9774;52.034;5.342;2023-08-07T07:31:44;19.00;68.90
19281;DHT22;9774;52.034;5.342;2023-08-07T07:34:12;19.00;68.70
19281;DHT22;9774;52.034;5.342;2023-08-07T07:36:40;19.00;68.60
19281;DHT22;9774;52.034;5.342;2023-08-07T07:39:08;19.00;68.60
19281;DHT22;9774;52.034;5.342;2023-08-07T07:41:35;19.00;68.80
19281;DHT22;9774;52.034;5.342;2023-08-07T07:44:02;19.00;69.00
19281;DHT22;9774;52.034;5.342;2023-08-07T07:46:29;19.00;69.20
19281;DHT22;9774;52.034;5.342;2023-08-07T07:48:58;19.10;69.50
19281;DHT22;9774;52.034;5.342;2023-08-07T07:51:25;19.10;69.60
19281;DHT22;9774;52.034;5.342;2023-08-07T07:53:53;19.20;69.80
19281;DHT22;9774;52.034;5.342;2023-08-07T07:56:21;19.20;69.70
19281;DHT22;9774;52.034;5.342;2023-08-07T07:58:48;19.30;69.60
19281;DHT22;9774;52.034;5.342;2023-08-07T08:01:15;19.30;69.60
19281;DHT22;9774;52.034;5.342;2023-08-07T08:03:43;19.40;69.70
19281;DHT22;9774;52.034;5.342;2023-08-07T08:06:11;19.50;69.80
19281;DHT22;9774;52.034;5.342;2023-08-07T08:08:39;19.50;69.80
19281;DHT22;9774;52.034;5.342;2023-08-07T08:11:08;19.60;69.70
19281;DHT22;9774;52.034;5.342;2023-08-07T08:13:37;19.70;69.50
19281;DHT22;9774;52.034;5.342;2023-08-07T08:16:06;19.80;69.40
19281;DHT22;9774;52.034;5.342;2023-08-07T08:18:34;19.80;69.10
19281;DHT22;9774;52.034;5.342;2023-08-07T08:21:01;19.90;68.70
19281;DHT22;9774;52.034;5.342;2023-08-07T08:23:29;20.00;68.60
19281;DHT22;9774;52.034;5.342;2023-08-07T08:25:56;20.00;68.70
19281;DHT22;9774;52.034;5.342;2023-08-07T08:28:24;20.10;68.50
19281;DHT22;9774;52.034;5.342;2023-08-07T08:30:53;20.20;68.00
19281;DHT22;9774;52.034;5.342;2023-08-07T08:33:20;20.20;67.30
19281;DHT22;9774;52.034;5.342;2023-08-07T08:35:47;20.30;66.60
19281;DHT22;9774;52.034;5.342;2023-08-07T08:38:14;20.30;66.40
19281;DHT22;9774;52.034;5.342;2023-08-07T08:40:42;20.30;66.20
19281;DHT22;9774;52.034;5.342;2023-08-07T08:43:12;20.30;65.90
19281;DHT22;9774;52.034;5.342;2023-08-07T08:45:41;20.30;65.60
19281;DHT22;9774;52.034;5.342;2023-08-07T08:48:16;20.30;65.50
19281;DHT22;9774;52.034;5.342;2023-08-07T08:50:48;20.30;65.40
19281;DHT22;9774;52.034;5.342;2023-08-07T08:53:16;20.30;65.90
19281;DHT22;9774;52.034;5.342;2023-08-07T08:55:45;20.40;66.00
19281;DHT22;9774;52.034;5.342;2023-08-07T08:58:14;20.50;65.80
19281;DHT22;9774;52.034;5.342;2023-08-07T09:00:42;20.60;65.90
19281;DHT22;9774;52.034;5.342;2023-08-07T09:03:12;20.60;65.60
19281;DHT22;9774;52.034;5.342;2023-08-07T09:05:39;20.70;65.10
19281;DHT22;9774;52.034;5.342;2023-08-07T09:08:08;20.70;64.40
19281;DHT22;9774;52.034;5.342;2023-08-07T09:10:36;20.70;64.30
19281;DHT22;9774;52.034;5.342;2023-08-07T09:13:05;20.70;64.00
19281;DHT22;9774;52.034;5.342;2023-08-07T09:15:38;20.80;63.30
19281;DHT22;9774;52.034;5.342;2023-08-07T09:18:06;20.70;63.50
19281;DHT22;9774;52.034;5.342;2023-08-07T09:20:37;20.70;63.70
19281;DHT22;9774;52.034;5.342;2023-08-07T09:23:05;20.70;63.50
19281;DHT22;9774;52.034;5.342;2023-08-07T09:25:34;20.70;63.70
19281;DHT22;9774;52.034;5.342;2023-08-07T09:28:02;20.70;63.90
19281;DHT22;9774;52.034;5.342;2023-08-07T09:30:31;20.70;63.90
19281;DHT22;9774;52.034;5.342;2023-08-07T09:32:59;20.70;63.60
19281;DHT22;9774;52.034;5.342;2023-08-07T09:35:29;20.70;63.50
19281;DHT22;9774;52.034;5.342;2023-08-07T09:37:58;20.70;63.50
19281;DHT22;9774;52.034;5.342;2023-08-07T09:40:25;20.70;63.40
19281;DHT22;9774;52.034;5.342;2023-08-07T09:42:53;20.70;63.10
19281;DHT22;9774;52.034;5.342;2023-08-07T09:45:21;20.70;63.30
19281;DHT22;9774;52.034;5.342;2023-08-07T09:47:59;20.70;63.30
19281;DHT22;9774;52.034;5.342;2023-08-07T09:50:27;20.80;62.70
19281;DHT22;9774;52.034;5.342;2023-08-07T09:52:55;20.80;63.00
19281;DHT22;9774;52.034;5.342;2023-08-07T09:55:24;20.80;62.90
19281;DHT22;9774;52.034;5.342;2023-08-07T09:57:52;20.90;62.90
19281;DHT22;9774;52.034;5.342;2023-08-07T10:00:20;20.90;62.90
19281;DHT22;9774;52.034;5.342;2023-08-07T10:02:48;20.90;62.70
19281;DHT22;9774;52.034;5.342;2023-08-07T10:05:16;21.00;62.80
19281;DHT22;9774;52.034;5.342;2023-08-07T10:07:44;21.00;62.80
19281;DHT22;9774;52.034;5.342;2023-08-07T10:10:12;21.00;62.80
19281;DHT22;9774;52.034;5.342;2023-08-07T10:12:41;21.10;62.30
19281;DHT22;9774;52.034;5.342;2023-08-07T10:15:11;21.10;62.20
19281;DHT22;9774;52.034;5.342;2023-08-07T10:17:39;21.00;62.00
19281;DHT22;9774;52.034;5.342;2023-08-07T10:20:07;21.00;62.00
19281;DHT22;9774;52.034;5.342;2023-08-07T10:22:38;21.00;62.00
19281;DHT22;9774;52.034;5.342;2023-08-07T10:25:06;20.90;61.90
19281;DHT22;9774;52.034;5.342;2023-08-07T10:27:36;20.90;62.00
19281;DHT22;9774;52.034;5.342;2023-08-07T10:30:09;20.80;62.00
19281;DHT22;9774;52.034;5.342;2023-08-07T10:32:39;20.80;62.20
19281;DHT22;9774;52.034;5.342;2023-08-07T10:35:07;20.70;62.40
19281;DHT22;9774;52.034;5.342;2023-08-07T10:37:42;20.70;62.50
19281;DHT22;9774;52.034;5.342;2023-08-07T10:40:11;20.70;62.50
19281;DHT22;9774;52.034;5.342;2023-08-07T10:42:57;20.70;62.90
19281;DHT22;9774;52.034;5.342;2023-08-07T10:45:27;20.70;62.80
19281;DHT22;9774;52.034;5.342;2023-08-07T10:48:01;20.80;63.50
19281;DHT22;9774;52.034;5.342;2023-08-07T10:50:32;20.90;63.60
19281;DHT22;9774;52.034;5.342;2023-08-07T10:53:01;21.00;63.60
19281;DHT22;9774;52.034;5.342;2023-08-07T10:55:31;21.10;63.20
19281;DHT22;9774;52.034;5.342;2023-08-07T10:58:21;21.20;62.70
19281;DHT22;9774;52.034;5.342;2023-08-07T11:00:51;21.20;61.80
19281;DHT22;9774;52.034;5.342;2023-08-07T11:03:40;21.30;62.00
19281;DHT22;9774;52.034;5.342;2023-08-07T11:06:09;21.40;61.60
19281;DHT22;9774;52.034;5.342;2023-08-07T11:08:37;21.40;61.20
19281;DHT22;9774;52.034;5.342;2023-08-07T11:11:04;21.40;60.80
19281;DHT22;9774;52.034;5.342;2023-08-07T11:13:33;21.40;60.80
19281;DHT22;9774;52.034;5.342;2023-08-07T11:16:02;21.40;60.70
19281;DHT22;9774;52.034;5.342;2023-08-07T11:18:30;21.40;61.10
19281;DHT22;9774;52.034;5.342;2023-08-07T11:20:58;21.40;60.20
19281;DHT22;9774;52.034;5.342;2023-08-07T11:23:27;21.40;60.20
19281;DHT22;9774;52.034;5.342;2023-08-07T11:25:55;21.40;60.20
19281;DHT22;9774;52.034;5.342;2023-08-07T11:28:23;21.40;60.00
19281;DHT22;9774;52.034;5.342;2023-08-07T11:30:51;21.40;60.00
19281;DHT22;9774;52.034;5.342;2023-08-07T11:33:23;21.40;60.00
19281;DHT22;9774;52.034;5.342;2023-08-07T11:35:51;21.30;60.00
19281;DHT22;9774;52.034;5.342;2023-08-07T11:38:30;21.30;60.50
19281;DHT22;9774;52.034;5.342;2023-08-07T11:40:59;21.30;60.70
19281;DHT22;9774;52.034;5.342;2023-08-07T11:43:27;21.30;61.10
19281;DHT22;9774;52.034;5.342;2023-08-07T11:45:56;21.30;61.30
19281;DHT22;9774;52.034;5.342;2023-08-07T11:48:26;21.20;61.30
19281;DHT22;9774;52.034;5.342;2023-08-07T11:50:54;21.20;61.20
19281;DHT22;9774;52.034;5.342;2023-08-07T11:53:22;21.30;61.20
19281;DHT22;9774;52.034;5.342;2023-08-07T11:55:56;21.30;61.60
19281;DHT22;9774;52.034;5.342;2023-08-07T11:58:25;21.20;61.70
19281;DHT22;9774;52.034;5.342;2023-08-07T12:00:52;21.30;61.70
19281;DHT22;9774;52.034;5.342;2023-08-07T12:03:25;21.30;61.90
19281;DHT22;9774;52.034;5.342;2023-08-07T12:05:55;21.40;62.00
19281;DHT22;9774;52.034;5.342;2023-08-07T12:08:23;21.50;62.00
19281;DHT22;9774;52.034;5.342;2023-08-07T12:10:51;21.60;61.50
19281;DHT22;9774;52.034;5.342;2023-08-07T12:13:23;21.60;61.00
19281;DHT22;9774;52.034;5.342;2023-08-07T12:15:54;21.70;60.60
19281;DHT22;9774;52.034;5.342;2023-08-07T12:18:22;21.70;60.10
19281;DHT22;9774;52.034;5.342;2023-08-07T12:20:51;21.70;60.10
19281;DHT22;9774;52.034;5.342;2023-08-07T12:23:21;21.80;59.50
19281;DHT22;9774;52.034;5.342;2023-08-07T12:25:48;21.80;59.20
19281;DHT22;9774;52.034;5.342;2023-08-07T12:28:15;21.80;59.10
19281;DHT22;9774;52.034;5.342;2023-08-07T12:30:44;21.80;58.70
19281;DHT22;9774;52.034;5.342;2023-08-07T12:33:12;21.80;58.70
19281;DHT22;9774;52.034;5.342;2023-08-07T12:35:40;21.80;58.70
19281;DHT22;9774;52.034;5.342;2023-08-07T12:38:09;21.80;58.70
19281;DHT22;9774;52.034;5.342;2023-08-07T12:40:36;21.80;58.60
19281;DHT22;9774;52.034;5.342;2023-08-07T12:43:04;21.80;58.40
19281;DHT22;9774;52.034;5.342;2023-08-07T12:45:32;21.90;58.50
19281;DHT22;9774;52.034;5.342;2023-08-07T12:47:59;21.80;58.50
19281;DHT22;9774;52.034;5.342;2023-08-07T12:50:28;21.90;58.50
19281;DHT22;9774;52.034;5.342;2023-08-07T12:52:56;21.90;58.30
19281;DHT22;9774;52.034;5.342;2023-08-07T12:55:25;21.90;58.40
19281;DHT22;9774;52.034;5.342;2023-08-07T12:57:53;21.90;58.60
19281;DHT22;9774;52.034;5.342;2023-08-07T13:00:22;22.00;58.10
19281;DHT22;9774;52.034;5.342;2023-08-07T13:02:51;22.00;58.10
19281;DHT22;9774;52.034;5.342;2023-08-07T13:05:19;22.00;58.20
19281;DHT22;9774;52.034;5.342;2023-08-07T13:07:47;22.10;57.90
19281;DHT22;9774;52.034;5.342;2023-08-07T13:10:16;22.10;58.10
19281;DHT22;9774;52.034;5.342;2023-08-07T13:12:47;22.10;58.20
19281;DHT22;9774;52.034;5.342;2023-08-07T13:15:16;22.20;57.80
19281;DHT22;9774;52.034;5.342;2023-08-07T13:17:44;22.20;57.10
19281;DHT22;9774;52.034;5.342;2023-08-07T13:20:12;22.20;57.30
19281;DHT22;9774;52.034;5.342;2023-08-07T13:22:41;22.30;57.20
19281;DHT22;9774;52.034;5.342;2023-08-07T13:25:09;22.30;56.90
19281;DHT22;9774;52.034;5.342;2023-08-07T13:27:37;22.30;56.80
19281;DHT22;9774;52.034;5.342;2023-08-07T13:30:08;22.30;56.90
19281;DHT22;9774;52.034;5.342;2023-08-07T13:32:35;22.40;56.70
19281;DHT22;9774;52.034;5.342;2023-08-07T13:35:03;22.40;56.80
19281;DHT22;9774;52.034;5.342;2023-08-07T13:37:31;22.40;56.70
19281;DHT22;9774;52.034;5.342;2023-08-07T13:39:58;22.40;56.20
19281;DHT22;9774;52.034;5.342;2023-08-07T13:42:26;22.40;56.10
19281;DHT22;9774;52.034;5.342;2023-08-07T13:44:54;22.50;55.90
19281;DHT22;9774;52.034;5.342;2023-08-07T13:47:23;22.50;55.60
19281;DHT22;9774;52.034;5.342;2023-08-07T13:49:51;22.50;55.40
19281;DHT22;9774;52.034;5.342;2023-08-07T13:52:19;22.50;55.10
19281;DHT22;9774;52.034;5.342;2023-08-07T13:54:46;22.50;54.80
19281;DHT22;9774;52.034;5.342;2023-08-07T13:57:13;22.50;54.90
19281;DHT22;9774;52.034;5.342;2023-08-07T13:59:40;22.60;54.70
19281;DHT22;9774;52.034;5.342;2023-08-07T14:02:06;22.70;54.80
19281;DHT22;9774;52.034;5.342;2023-08-07T14:04:35;22.70;54.60
19281;DHT22;9774;52.034;5.342;2023-08-07T14:07:03;22.80;54.60
19281;DHT22;9774;52.034;5.342;2023-08-07T14:09:30;22.80;54.50
19281;DHT22;9774;52.034;5.342;2023-08-07T14:11:57;22.90;54.70
19281;DHT22;9774;52.034;5.342;2023-08-07T14:14:24;22.90;54.40
19281;DHT22;9774;52.034;5.342;2023-08-07T14:16:51;22.90;54.10
19281;DHT22;9774;52.034;5.342;2023-08-07T14:19:19;23.00;54.80
19281;DHT22;9774;52.034;5.342;2023-08-07T14:21:48;23.00;54.40
19281;DHT22;9774;52.034;5.342;2023-08-07T14:24:15;23.00;54.00
19281;DHT22;9774;52.034;5.342;2023-08-07T14:26:42;23.10;53.80
19281;DHT22;9774;52.034;5.342;2023-08-07T14:29:09;23.00;53.90
19281;DHT22;9774;52.034;5.342;2023-08-07T14:31:36;23.00;53.70
19281;DHT22;9774;52.034;5.342;2023-08-07T14:34:03;23.00;53.80
19281;DHT22;9774;52.034;5.342;2023-08-07T14:36:30;22.90;53.50
19281;DHT22;9774;52.034;5.342;2023-08-07T14:38:58;22.90;53.60
19281;DHT22;9774;52.034;5.342;2023-08-07T14:41:25;22.90;53.50
19281;DHT22;9774;52.034;5.342;2023-08-07T14:43:52;22.90;53.80
19281;DHT22;9774;52.034;5.342;2023-08-07T14:46:20;22.90;53.50
19281;DHT22;9774;52.034;5.342;2023-08-07T14:48:49;22.90;53.80
19281;DHT22;9774;52.034;5.342;2023-08-07T14:51:16;22.90;53.70
19281;DHT22;9774;52.034;5.342;2023-08-07T14:53:46;23.00;53.70
19281;DHT22;9774;52.034;5.342;2023-08-07T14:56:14;23.00;53.60
19281;DHT22;9774;52.034;5.342;2023-08-07T14:58:41;23.10;54.30
19281;DHT22;9774;52.034;5.342;2023-08-07T15:01:08;23.10;53.90
19281;DHT22;9774;52.034;5.342;2023-08-07T15:03:36;23.10;53.60
19281;DHT22;9774;52.034;5.342;2023-08-07T15:06:03;23.00;53.20
19281;DHT22;9774;52.034;5.342;2023-08-07T15:08:30;23.00;53.00
19281;DHT22;9774;52.034;5.342;2023-08-07T15:10:57;23.00;53.00
19281;DHT22;9774;52.034;5.342;2023-08-07T15:13:29;22.90;53.20
19281;DHT22;9774;52.034;5.342;2023-08-07T15:15:56;22.80;53.10
19281;DHT22;9774;52.034;5.342;2023-08-07T15:18:24;22.70;53.20
19281;DHT22;9774;52.034;5.342;2023-08-07T15:20:51;22.70;53.30
19281;DHT22;9774;52.034;5.342;2023-08-07T15:23:18;22.60;53.40
19281;DHT22;9774;52.034;5.342;2023-08-07T15:25:45;22.50;53.60
19281;DHT22;9774;52.034;5.342;2023-08-07T15:28:12;22.50;53.90
19281;DHT22;9774;52.034;5.342;2023-08-07T15:30:47;22.40;54.10
19281;DHT22;9774;52.034;5.342;2023-08-07T15:33:16;22.30;54.20
19281;DHT22;9774;52.034;5.342;2023-08-07T15:35:44;22.30;54.50
19281;DHT22;9774;52.034;5.342;2023-08-07T15:38:11;22.20;55.40
19281;DHT22;9774;52.034;5.342;2023-08-07T15:40:39;22.20;54.90
19281;DHT22;9774;52.034;5.342;2023-08-07T15:43:07;22.10;55.00
19281;DHT22;9774;52.034;5.342;2023-08-07T15:45:35;22.10;55.20
19281;DHT22;9774;52.034;5.342;2023-08-07T15:48:05;22.00;55.40
19281;DHT22;9774;52.034;5.342;2023-08-07T15:50:34;22.00;55.60
19281;DHT22;9774;52.034;5.342;2023-08-07T15:53:04;22.00;55.90